Time;durP1;ratioP1;P1;durP2;ratioP2;P2;SDS_P1;SDS_P2;PMS_P1;PMS_P2;Temp;Humidity;BMP_temperature;BMP_pressure;BME280_temperature;BME280_humidity;BME280_pressure;Samples;Min_cycle;Max_cycle;Signal;HPM_P1;HPM_P2
2022/05/22 00:00:11;;;;;;;;;;;13.80;99.90;;;;;;5096132;28;19991;-76
2022/05/22 00:02:37;;;;;;;;;;;13.80;99.90;;;;;;5076420;28;19916;-77
2022/05/22 00:05:03;;;;;;;;;;;13.80;99.90;;;;;;5057972;28;19992;-77
2022/05/22 00:07:28;;;;;;;;;;;13.70;99.90;;;;;;5076256;28;19911;-77
2022/05/22 00:09:54;;;;;;;;;;;13.70;99.90;;;;;;5091495;28;19938;-77
2022/05/22 00:12:19;;;;;;;;;;;13.70;99.90;;;;;;5089450;28;20426;-76
2022/05/22 00:14:45;;;;;;;;;;;13.70;99.90;;;;;;5096751;28;19991;-78
2022/05/22 00:17:11;;;;;;;;;;;13.60;99.90;;;;;;5096123;28;19903;-76
2022/05/22 00:19:37;;;;;;;;;;;13.50;99.90;;;;;;5077880;28;19904;-78
2022/05/22 00:22:04;;;;;;;;;;;13.40;99.90;;;;;;5096005;28;19961;-76
2022/05/22 00:24:30;;;;;;;;;;;13.40;99.90;;;;;;5096052;28;20359;-80
2022/05/22 00:26:56;;;;;;;;;;;13.30;99.90;;;;;;5095503;28;19908;-76
2022/05/22 00:29:22;;;;;;;;;;;13.20;99.90;;;;;;5095714;28;19919;-76
2022/05/22 00:31:47;;;;;;;;;;;13.20;99.90;;;;;;5095604;28;20359;-76
2022/05/22 00:34:13;;;;;;;;;;;13.30;99.90;;;;;;5095958;28;19930;-78
2022/05/22 00:36:39;;;;;;;;;;;13.20;99.90;;;;;;5095920;28;19926;-78
2022/05/22 00:39:05;;;;;;;;;;;13.10;99.90;;;;;;5096110;28;19904;-76
2022/05/22 00:41:32;;;;;;;;;;;13.10;99.90;;;;;;5076197;28;19974;-76
2022/05/22 00:43:58;;;;;;;;;;;13.10;99.90;;;;;;5075277;28;19904;-76
2022/05/22 00:46:25;;;;;;;;;;;13.00;99.90;;;;;;5075092;28;19949;-76
2022/05/22 00:48:58;;;;;;;;;;;12.90;99.90;;;;;;5058009;28;19988;-76
2022/05/22 00:51:36;;;;;;;;;;;12.80;99.90;;;;;;5057326;28;19904;-78
2022/05/22 00:54:04;;;;;;;;;;;12.80;99.90;;;;;;5075997;28;19955;-76
2022/05/22 00:56:36;;;;;;;;;;;12.80;99.90;;;;;;5093611;28;19954;-78
2022/05/22 00:59:06;;;;;;;;;;;12.70;99.90;;;;;;5095491;28;19904;-78
2022/05/22 01:01:31;;;;;;;;;;;12.60;99.90;;;;;;5095018;28;19919;-80
2022/05/22 01:03:58;;;;;;;;;;;12.50;99.90;;;;;;5095041;28;19904;-76
2022/05/22 01:06:26;;;;;;;;;;;12.50;99.90;;;;;;5095110;28;19951;-76
2022/05/22 01:08:52;;;;;;;;;;;12.50;99.90;;;;;;5087119;28;19915;-76
2022/05/22 01:11:23;;;;;;;;;;;12.40;99.90;;;;;;5074439;28;19998;-77
2022/05/22 01:13:50;;;;;;;;;;;12.40;99.90;;;;;;5075440;28;19904;-76
2022/05/22 01:16:16;;;;;;;;;;;12.40;99.90;;;;;;5091491;28;19908;-79
2022/05/22 01:18:59;;;;;;;;;;;12.30;99.90;;;;;;5096327;28;19904;-77
2022/05/22 01:21:26;;;;;;;;;;;12.20;99.90;;;;;;5095174;28;19904;-77
2022/05/22 01:23:52;;;;;;;;;;;12.10;99.90;;;;;;5078566;28;19966;-78
2022/05/22 01:26:18;;;;;;;;;;;12.00;99.90;;;;;;5092836;28;19905;-76
2022/05/22 01:28:43;;;;;;;;;;;11.80;99.90;;;;;;5094703;28;19904;-78
2022/05/22 01:31:09;;;;;;;;;;;11.80;99.90;;;;;;5095829;28;19904;-78
2022/05/22 01:33:36;;;;;;;;;;;11.80;99.90;;;;;;5096145;28;19970;-78
2022/05/22 01:36:02;;;;;;;;;;;11.70;99.90;;;;;;5094891;28;20279;-78
2022/05/22 01:38:28;;;;;;;;;;;11.70;99.90;;;;;;5092939;28;19957;-77
2022/05/22 01:40:53;;;;;;;;;;;11.70;99.90;;;;;;5094429;28;20051;-76
2022/05/22 01:43:19;;;;;;;;;;;11.70;99.90;;;;;;5094065;28;19931;-76
2022/05/22 01:45:45;;;;;;;;;;;11.80;99.90;;;;;;5076269;28;19907;-76
2022/05/22 01:48:11;;;;;;;;;;;11.80;99.90;;;;;;5110126;28;19953;-76
2022/05/22 01:50:38;;;;;;;;;;;11.90;99.90;;;;;;5093551;28;20423;-76
2022/05/22 01:53:04;;;;;;;;;;;12.00;99.90;;;;;;5074162;28;19904;-76
2022/05/22 01:55:30;;;;;;;;;;;12.00;99.90;;;;;;5083649;28;19904;-79
2022/05/22 01:57:55;;;;;;;;;;;12.00;99.90;;;;;;5094518;28;20291;-78
2022/05/22 02:00:23;;;;;;;;;;;12.10;99.90;;;;;;5094303;28;19911;-76
2022/05/22 02:02:48;;;;;;;;;;;12.10;99.90;;;;;;5094224;28;20356;-76
2022/05/22 02:05:16;;;;;;;;;;;12.10;99.90;;;;;;5094572;28;19983;-76
2022/05/22 02:10:27;;;;;;;;;;;12.10;99.90;;;;;;5074103;28;19911;-80
2022/05/22 02:12:53;;;;;;;;;;;12.10;99.90;;;;;;5073969;28;19904;-76
2022/05/22 02:15:19;;;;;;;;;;;12.10;99.90;;;;;;5074042;28;19904;-76
2022/05/22 02:17:45;;;;;;;;;;;12.10;99.90;;;;;;5074959;28;19904;-78
2022/05/22 02:20:11;;;;;;;;;;;12.00;99.90;;;;;;5082836;28;19908;-78
2022/05/22 02:22:44;;;;;;;;;;;11.90;99.90;;;;;;5094692;28;19957;-78
2022/05/22 02:25:10;;;;;;;;;;;11.80;99.90;;;;;;5094846;28;19958;-78
2022/05/22 02:27:35;;;;;;;;;;;11.80;99.90;;;;;;5095378;28;19915;-78
2022/05/22 02:30:03;;;;;;;;;;;11.80;99.90;;;;;;5097109;28;19908;-78
2022/05/22 02:32:29;;;;;;;;;;;11.70;99.90;;;;;;5098683;28;20325;-78
2022/05/22 02:34:54;;;;;;;;;;;11.60;99.90;;;;;;5090486;28;19908;-78
2022/05/22 02:37:20;;;;;;;;;;;11.60;99.90;;;;;;5060335;28;19957;-78
2022/05/22 02:39:45;;;;;;;;;;;11.60;99.90;;;;;;5078047;28;19909;-78
2022/05/22 02:42:11;;;;;;;;;;;11.60;99.90;;;;;;5059861;28;20003;-78
2022/05/22 02:44:36;;;;;;;;;;;11.50;99.90;;;;;;5077994;28;19911;-78
2022/05/22 02:47:02;;;;;;;;;;;11.50;99.90;;;;;;5077724;28;19905;-78
2022/05/22 02:49:28;;;;;;;;;;;11.50;99.90;;;;;;5091572;28;20275;-78
2022/05/22 02:51:53;;;;;;;;;;;11.50;99.90;;;;;;5098083;28;19930;-78
2022/05/22 02:54:21;;;;;;;;;;;11.50;99.90;;;;;;5098067;28;19907;-78
2022/05/22 02:56:46;;;;;;;;;;;11.50;99.90;;;;;;5097756;28;20003;-78
2022/05/22 02:59:12;;;;;;;;;;;11.50;99.90;;;;;;5113901;28;19968;-78
2022/05/22 03:01:37;;;;;;;;;;;11.60;99.90;;;;;;5113717;28;19965;-78
2022/05/22 03:04:03;;;;;;;;;;;11.50;99.90;;;;;;5085640;28;20329;-78
2022/05/22 03:06:38;;;;;;;;;;;11.40;99.90;;;;;;5078253;28;19904;-78
2022/05/22 03:09:04;;;;;;;;;;;11.40;99.90;;;;;;5077800;28;19905;-78
2022/05/22 03:11:30;;;;;;;;;;;11.30;99.90;;;;;;5077192;28;19905;-78
2022/05/22 03:13:55;;;;;;;;;;;11.30;99.90;;;;;;5093389;28;19932;-78
2022/05/22 03:16:21;;;;;;;;;;;11.30;99.90;;;;;;5077270;28;20375;-78
2022/05/22 03:18:46;;;;;;;;;;;11.30;99.90;;;;;;5096056;28;19908;-78
2022/05/22 03:21:13;;;;;;;;;;;11.40;99.90;;;;;;5097280;28;19991;-78
2022/05/22 03:23:39;;;;;;;;;;;11.40;99.90;;;;;;5097442;28;20364;-78
2022/05/22 03:26:04;;;;;;;;;;;11.40;99.90;;;;;;5079948;28;19930;-78
2022/05/22 03:28:30;;;;;;;;;;;11.40;99.90;;;;;;5098344;28;19904;-79
2022/05/22 03:30:56;;;;;;;;;;;11.40;99.90;;;;;;5108176;28;20332;-78
2022/05/22 03:33:22;;;;;;;;;;;11.40;99.90;;;;;;5082419;28;19908;-78
2022/05/22 03:35:47;;;;;;;;;;;11.30;99.90;;;;;;5077440;28;19905;-78
2022/05/22 03:38:13;;;;;;;;;;;11.30;99.90;;;;;;5076832;28;19999;-78
2022/05/22 03:40:41;;;;;;;;;;;11.30;99.90;;;;;;5076363;28;19997;-78
2022/05/22 03:43:07;;;;;;;;;;;11.30;99.90;;;;;;5059026;28;19955;-78
2022/05/22 03:45:32;;;;;;;;;;;11.20;99.90;;;;;;5080308;28;19930;-78
2022/05/22 03:47:58;;;;;;;;;;;11.30;99.90;;;;;;5097877;28;19926;-78
2022/05/22 03:50:24;;;;;;;;;;;11.20;99.90;;;;;;5096990;28;19908;-78
2022/05/22 03:52:51;;;;;;;;;;;11.20;99.90;;;;;;5097403;28;19911;-78
2022/05/22 03:55:17;;;;;;;;;;;11.30;99.90;;;;;;5097111;28;19910;-78
2022/05/22 03:57:46;;;;;;;;;;;11.30;99.90;;;;;;5096988;28;19955;-78
2022/05/22 04:00:12;;;;;;;;;;;11.30;99.90;;;;;;5093729;28;19923;-78
2022/05/22 04:02:37;;;;;;;;;;;11.30;99.90;;;;;;5076269;28;19999;-78
2022/05/22 04:05:04;;;;;;;;;;;11.20;99.90;;;;;;5076673;28;19904;-78
2022/05/22 04:07:29;;;;;;;;;;;11.30;99.90;;;;;;5076517;28;19904;-78
2022/05/22 04:09:58;;;;;;;;;;;11.20;99.90;;;;;;5058595;28;19912;-78
2022/05/22 04:12:23;;;;;;;;;;;11.20;99.90;;;;;;5076261;28;19927;-78
2022/05/22 04:14:52;;;;;;;;;;;11.20;99.90;;;;;;5058869;28;20348;-78
2022/05/22 04:17:18;;;;;;;;;;;11.10;99.90;;;;;;5076457;28;19904;-78
2022/05/22 04:19:43;;;;;;;;;;;11.10;99.90;;;;;;5076694;28;19911;-78
2022/05/22 04:22:09;;;;;;;;;;;11.00;99.90;;;;;;5076090;28;19908;-78
2022/05/22 04:27:19;;;;;;;;;;;11.00;99.90;;;;;;5091627;28;19950;-78
2022/05/22 04:29:44;;;;;;;;;;;11.00;99.90;;;;;;5094529;28;19908;-78
2022/05/22 04:32:10;;;;;;;;;;;11.00;99.90;;;;;;5096301;28;19904;-78
2022/05/22 04:34:36;;;;;;;;;;;11.00;99.90;;;;;;5096397;28;19907;-78
2022/05/22 04:37:01;;;;;;;;;;;11.00;99.90;;;;;;5096089;28;19911;-78
2022/05/22 04:39:27;;;;;;;;;;;11.00;99.90;;;;;;5096055;28;19911;-78
2022/05/22 04:41:52;;;;;;;;;;;11.10;99.90;;;;;;5111244;28;19904;-78
2022/05/22 04:44:18;;;;;;;;;;;11.10;99.90;;;;;;5097008;28;19908;-78
2022/05/22 04:46:43;;;;;;;;;;;11.10;99.90;;;;;;5077808;28;19904;-78
2022/05/22 04:49:09;;;;;;;;;;;11.10;99.90;;;;;;5095431;28;19904;-78
2022/05/22 04:51:35;;;;;;;;;;;11.10;99.90;;;;;;5094779;28;19946;-78
2022/05/22 04:54:00;;;;;;;;;;;11.00;99.90;;;;;;5095897;28;19912;-78
2022/05/22 04:56:26;;;;;;;;;;;11.10;99.90;;;;;;5077665;28;19904;-78
2022/05/22 04:58:52;;;;;;;;;;;11.10;99.90;;;;;;5097148;28;20002;-78
2022/05/22 05:01:17;;;;;;;;;;;11.20;99.90;;;;;;5116032;28;19912;-79
2022/05/22 05:03:43;;;;;;;;;;;11.20;99.90;;;;;;5100298;28;19915;-79
2022/05/22 05:06:08;;;;;;;;;;;11.40;99.90;;;;;;5097420;28;19910;-79
2022/05/22 05:08:34;;;;;;;;;;;11.40;99.90;;;;;;5097043;28;19970;-79
2022/05/22 05:11:00;;;;;;;;;;;11.50;99.90;;;;;;5097430;28;19904;-79
2022/05/22 05:13:26;;;;;;;;;;;11.60;99.90;;;;;;5079962;28;20372;-79
2022/05/22 05:15:59;;;;;;;;;;;11.60;99.90;;;;;;5098964;28;19915;-79
2022/05/22 05:18:25;;;;;;;;;;;11.70;99.90;;;;;;5097936;28;19904;-78
2022/05/22 05:20:51;;;;;;;;;;;11.70;99.90;;;;;;5113441;28;20283;-78
2022/05/22 05:23:16;;;;;;;;;;;11.80;99.90;;;;;;5097914;28;19926;-79
2022/05/22 05:25:42;;;;;;;;;;;11.80;99.90;;;;;;5098332;28;19904;-78
2022/05/22 05:28:07;;;;;;;;;;;11.90;99.90;;;;;;5097836;28;19904;-78
2022/05/22 05:30:33;;;;;;;;;;;12.00;99.90;;;;;;5104667;28;20324;-78
2022/05/22 05:32:58;;;;;;;;;;;12.10;99.90;;;;;;5118432;28;19910;-79
2022/05/22 05:35:24;;;;;;;;;;;12.20;99.90;;;;;;5100104;28;19970;-79
2022/05/22 05:37:51;;;;;;;;;;;12.20;99.90;;;;;;5118371;28;19988;-79
2022/05/22 05:40:16;;;;;;;;;;;12.30;99.90;;;;;;5119348;28;20259;-79
2022/05/22 05:42:42;;;;;;;;;;;12.40;99.90;;;;;;5133299;28;19908;-79
2022/05/22 05:45:08;;;;;;;;;;;12.40;99.90;;;;;;5110652;28;19914;-79
2022/05/22 05:47:34;;;;;;;;;;;12.50;99.90;;;;;;5096208;28;19911;-79
2022/05/22 05:49:59;;;;;;;;;;;12.50;99.90;;;;;;5096061;28;19904;-79
2022/05/22 05:52:25;;;;;;;;;;;12.70;99.90;;;;;;5096662;28;19950;-79
2022/05/22 05:54:50;;;;;;;;;;;12.70;99.90;;;;;;5096178;28;19904;-79
2022/05/22 05:57:16;;;;;;;;;;;12.80;99.90;;;;;;5096134;28;19908;-79
2022/05/22 05:59:42;;;;;;;;;;;12.90;99.90;;;;;;5107319;28;20002;-79
2022/05/22 06:02:12;;;;;;;;;;;13.00;99.90;;;;;;5117223;28;19916;-79
2022/05/22 06:04:39;;;;;;;;;;;13.00;99.90;;;;;;5099579;28;20439;-79
2022/05/22 06:07:05;;;;;;;;;;;13.10;99.90;;;;;;5118237;28;20374;-79
2022/05/22 06:09:30;;;;;;;;;;;13.20;99.90;;;;;;5117504;28;19915;-78
2022/05/22 06:11:56;;;;;;;;;;;13.20;99.90;;;;;;5117971;28;19908;-78
2022/05/22 06:14:21;;;;;;;;;;;13.30;99.90;;;;;;5100346;28;19908;-79
2022/05/22 06:16:47;;;;;;;;;;;13.40;99.90;;;;;;5098126;28;19911;-79
2022/05/22 06:19:12;;;;;;;;;;;13.40;99.90;;;;;;5098131;28;19911;-78
2022/05/22 06:21:38;;;;;;;;;;;13.50;99.90;;;;;;5098060;28;19957;-79
2022/05/22 06:24:04;;;;;;;;;;;13.60;99.90;;;;;;5098541;28;19991;-79
2022/05/22 06:26:29;;;;;;;;;;;13.60;99.90;;;;;;5098536;28;19904;-79
2022/05/22 06:28:55;;;;;;;;;;;13.70;99.90;;;;;;5114529;28;20337;-78
2022/05/22 06:31:20;;;;;;;;;;;13.80;99.90;;;;;;5119019;28;19949;-79
2022/05/22 06:33:46;;;;;;;;;;;13.90;99.90;;;;;;5119024;28;19912;-79
2022/05/22 06:36:13;;;;;;;;;;;14.00;99.90;;;;;;5115078;28;19903;-78
2022/05/22 06:41:24;;;;;;;;;;;14.20;99.90;;;;;;5098596;28;19911;-78
2022/05/22 06:43:53;;;;;;;;;;;14.30;99.90;;;;;;5099129;28;19935;-79
2022/05/22 06:46:19;;;;;;;;;;;14.30;99.90;;;;;;5100890;28;19995;-79
2022/05/22 06:48:44;;;;;;;;;;;14.50;99.90;;;;;;5100419;28;19904;-79
2022/05/22 06:51:10;;;;;;;;;;;14.60;99.90;;;;;;5085457;28;19959;-79
2022/05/22 06:53:35;;;;;;;;;;;14.70;99.90;;;;;;5100353;28;19918;-78
2022/05/22 06:56:01;;;;;;;;;;;14.80;99.90;;;;;;5110192;28;19904;-79
2022/05/22 06:58:26;;;;;;;;;;;15.00;99.90;;;;;;5079523;28;19911;-79
2022/05/22 07:00:52;;;;;;;;;;;15.10;99.90;;;;;;5080425;28;19904;-79
2022/05/22 07:03:18;;;;;;;;;;;15.20;99.90;;;;;;5080640;28;20011;-79
2022/05/22 07:05:43;;;;;;;;;;;15.40;99.90;;;;;;5097499;28;19908;-78
2022/05/22 07:08:09;;;;;;;;;;;15.60;99.90;;;;;;5101564;28;19903;-79
2022/05/22 07:13:19;;;;;;;;;;;15.80;99.90;;;;;;5119851;28;19911;-79
2022/05/22 07:15:45;;;;;;;;;;;16.00;99.90;;;;;;5104623;28;19903;-79
2022/05/22 07:18:10;;;;;;;;;;;16.00;99.90;;;;;;5123493;28;19911;-79
2022/05/22 07:20:36;;;;;;;;;;;16.10;99.90;;;;;;5113840;28;19972;-78
2022/05/22 07:23:02;;;;;;;;;;;16.20;99.90;;;;;;5102890;28;19965;-79
2022/05/22 07:25:27;;;;;;;;;;;16.40;99.90;;;;;;5102466;28;20339;-78
2022/05/22 07:27:53;;;;;;;;;;;16.50;99.90;;;;;;5102492;28;19911;-79
2022/05/22 07:30:18;;;;;;;;;;;16.70;99.90;;;;;;5084274;28;19957;-79
2022/05/22 07:32:44;;;;;;;;;;;16.80;99.90;;;;;;5083952;28;20344;-79
2022/05/22 07:35:10;;;;;;;;;;;17.00;99.90;;;;;;5117006;28;19908;-79
2022/05/22 07:37:36;;;;;;;;;;;17.10;99.90;;;;;;5105550;28;20027;-78
2022/05/22 07:40:01;;;;;;;;;;;17.20;99.90;;;;;;5124233;28;20002;-78
2022/05/22 07:42:27;;;;;;;;;;;17.30;99.90;;;;;;5124027;28;19915;-79
2022/05/22 07:44:52;;;;;;;;;;;17.40;99.90;;;;;;5123973;28;19903;-79
2022/05/22 07:47:18;;;;;;;;;;;17.50;99.90;;;;;;5124074;28;19904;-79
2022/05/22 07:52:28;;;;;;;;;;;17.70;99.90;;;;;;5103347;28;19931;-79
2022/05/22 07:54:55;;;;;;;;;;;17.80;99.90;;;;;;5129286;28;19908;-79
2022/05/22 07:57:21;;;;;;;;;;;18.00;99.60;;;;;;5100516;28;20310;-79
2022/05/22 07:59:47;;;;;;;;;;;18.10;99.70;;;;;;5098761;28;19958;-79
2022/05/22 08:02:13;;;;;;;;;;;18.30;99.90;;;;;;5099903;28;19919;-79
2022/05/22 08:04:39;;;;;;;;;;;18.40;99.30;;;;;;5119881;28;19908;-79
2022/05/22 08:07:05;;;;;;;;;;;18.50;99.10;;;;;;5101835;28;20275;-79
2022/05/22 08:09:30;;;;;;;;;;;18.70;98.50;;;;;;5120667;28;19903;-79
2022/05/22 08:11:56;;;;;;;;;;;18.80;97.80;;;;;;5120085;28;20371;-79
2022/05/22 08:14:21;;;;;;;;;;;18.90;98.40;;;;;;5121359;28;19903;-79
2022/05/22 08:16:47;;;;;;;;;;;19.10;97.90;;;;;;5102447;28;20055;-79
2022/05/22 08:19:12;;;;;;;;;;;19.20;97.60;;;;;;5101269;28;19926;-78
2022/05/22 08:21:38;;;;;;;;;;;19.20;97.40;;;;;;5100019;28;19974;-78
2022/05/22 08:24:04;;;;;;;;;;;19.30;96.80;;;;;;5100744;28;19908;-79
2022/05/22 08:26:29;;;;;;;;;;;19.50;97.10;;;;;;5100776;28;19908;-78
2022/05/22 08:28:55;;;;;;;;;;;19.60;96.80;;;;;;5100259;28;19910;-79
2022/05/22 08:31:21;;;;;;;;;;;19.70;97.10;;;;;;5101190;28;19911;-78
2022/05/22 08:33:47;;;;;;;;;;;19.80;96.20;;;;;;5100905;28;19912;-79
2022/05/22 08:36:12;;;;;;;;;;;19.90;95.50;;;;;;5101004;28;19910;-79
2022/05/22 08:38:38;;;;;;;;;;;20.10;95.30;;;;;;5101464;28;19947;-79
2022/05/22 08:41:30;;;;;;;;;;;20.20;94.70;;;;;;5100986;28;19911;-79
2022/05/22 08:44:00;;;;;;;;;;;20.40;94.50;;;;;;5096400;28;19908;-78
2022/05/22 08:46:44;;;;;;;;;;;20.60;94.00;;;;;;5108665;28;19911;-79
2022/05/22 08:49:23;;;;;;;;;;;20.70;93.70;;;;;;5122730;28;19907;-78
2022/05/22 08:51:57;;;;;;;;;;;20.90;92.90;;;;;;5103520;28;19935;-79
2022/05/22 08:54:34;;;;;;;;;;;21.00;92.80;;;;;;5122889;28;19911;-79
2022/05/22 08:59:47;;;;;;;;;;;21.20;92.50;;;;;;5088732;28;19918;-79
2022/05/22 09:02:33;;;;;;;;;;;21.40;91.60;;;;;;5123835;28;19912;-79
2022/05/22 09:05:02;;;;;;;;;;;21.50;91.20;;;;;;5124324;28;19979;-79
2022/05/22 09:07:50;;;;;;;;;;;21.70;91.60;;;;;;5126456;28;19931;-79
2022/05/22 09:10:19;;;;;;;;;;;21.80;90.00;;;;;;5126239;28;19911;-79
2022/05/22 09:13:04;;;;;;;;;;;21.90;88.50;;;;;;5124052;28;19911;-78
2022/05/22 09:15:45;;;;;;;;;;;22.00;90.30;;;;;;5123339;28;20010;-79
2022/05/22 09:18:31;;;;;;;;;;;22.00;88.10;;;;;;5105519;28;19929;-78
2022/05/22 09:20:56;;;;;;;;;;;22.10;86.60;;;;;;5123615;28;19908;-78
2022/05/22 09:23:28;;;;;;;;;;;22.10;83.20;;;;;;5123988;28;19915;-78
2022/05/22 09:26:01;;;;;;;;;;;22.20;88.90;;;;;;5116069;28;19911;-78
2022/05/22 09:28:36;;;;;;;;;;;22.30;86.70;;;;;;5089496;28;19912;-78
2022/05/22 09:31:20;;;;;;;;;;;22.50;86.80;;;;;;5105734;28;19904;-79
2022/05/22 09:34:04;;;;;;;;;;;22.60;82.70;;;;;;5103685;28;19955;-78
2022/05/22 09:36:39;;;;;;;;;;;22.70;83.30;;;;;;5123809;28;20027;-78
2022/05/22 09:39:14;;;;;;;;;;;22.80;84.00;;;;;;5121392;28;20411;-78
2022/05/22 09:42:02;;;;;;;;;;;22.90;83.10;;;;;;5121728;28;19971;-78
2022/05/22 09:44:45;;;;;;;;;;;22.90;81.90;;;;;;5094048;28;19951;-78
2022/05/22 09:47:22;;;;;;;;;;;22.90;81.70;;;;;;5101921;28;19947;-78
2022/05/22 09:50:06;;;;;;;;;;;23.00;80.10;;;;;;5100911;28;19904;-78
2022/05/22 09:52:38;;;;;;;;;;;23.00;78.20;;;;;;5083543;28;20360;-79
2022/05/22 09:55:09;;;;;;;;;;;23.10;81.90;;;;;;5102231;28;19938;-78
2022/05/22 09:57:53;;;;;;;;;;;23.10;84.60;;;;;;5107160;28;19908;-78
2022/05/22 10:00:20;;;;;;;;;;;23.20;81.30;;;;;;5121991;28;20386;-78
2022/05/22 10:03:03;;;;;;;;;;;23.30;81.90;;;;;;5120922;28;19916;-78
2022/05/22 10:05:44;;;;;;;;;;;23.40;80.10;;;;;;5105515;28;19904;-78
2022/05/22 10:08:14;;;;;;;;;;;23.50;78.60;;;;;;5123905;28;19982;-79
2022/05/22 10:10:52;;;;;;;;;;;23.50;78.00;;;;;;5098345;28;19996;-79
2022/05/22 10:13:24;;;;;;;;;;;23.40;77.90;;;;;;5114752;28;20391;-80
2022/05/22 10:16:12;;;;;;;;;;;23.30;78.20;;;;;;5098385;28;19947;-80
2022/05/22 10:18:43;;;;;;;;;;;23.40;80.50;;;;;;5116725;28;19932;-79
2022/05/22 10:21:28;;;;;;;;;;;23.50;76.90;;;;;;5116758;28;19910;-79
2022/05/22 10:24:08;;;;;;;;;;;23.60;77.10;;;;;;5098764;28;20382;-79
2022/05/22 10:26:34;;;;;;;;;;;23.70;77.70;;;;;;5113278;28;19944;-79
2022/05/22 10:29:02;;;;;;;;;;;23.60;75.80;;;;;;5098750;28;19956;-79
2022/05/22 10:31:46;;;;;;;;;;;23.70;78.30;;;;;;5117478;28;19910;-79
2022/05/22 10:34:24;;;;;;;;;;;23.80;78.50;;;;;;5117876;28;19951;-79
2022/05/22 10:36:51;;;;;;;;;;;23.90;75.00;;;;;;5116789;28;19903;-79
2022/05/22 10:39:19;;;;;;;;;;;23.90;75.40;;;;;;5116924;28;19904;-79
2022/05/22 10:44:40;;;;;;;;;;;23.90;76.00;;;;;;5097352;28;20283;-79
2022/05/22 10:47:07;;;;;;;;;;;24.10;76.50;;;;;;5096939;28;19904;-79
2022/05/22 10:49:37;;;;;;;;;;;24.30;75.40;;;;;;5096427;28;19940;-79
2022/05/22 10:52:03;;;;;;;;;;;24.30;74.70;;;;;;5100304;28;19904;-79
2022/05/22 10:54:30;;;;;;;;;;;24.30;72.00;;;;;;5101829;28;19904;-78
2022/05/22 10:57:08;;;;;;;;;;;24.40;72.50;;;;;;5094805;28;19943;-80
2022/05/22 10:59:33;;;;;;;;;;;24.40;71.70;;;;;;5080334;28;19957;-80
2022/05/22 11:02:00;;;;;;;;;;;24.40;72.80;;;;;;5079515;28;19913;-80
2022/05/22 11:04:40;;;;;;;;;;;24.50;73.80;;;;;;5061411;28;19995;-80
2022/05/22 11:07:06;;;;;;;;;;;24.50;73.30;;;;;;5079984;28;19911;-80
2022/05/22 11:09:44;;;;;;;;;;;24.60;71.70;;;;;;5088592;28;19943;-80
2022/05/22 11:12:12;;;;;;;;;;;24.60;72.00;;;;;;5102361;28;19911;-80
2022/05/22 11:14:39;;;;;;;;;;;24.60;72.00;;;;;;5120206;28;19904;-80
2022/05/22 11:17:14;;;;;;;;;;;24.80;73.60;;;;;;5120726;28;19904;-80
2022/05/22 11:19:40;;;;;;;;;;;24.90;70.90;;;;;;5121065;28;19904;-80
2022/05/22 11:22:27;;;;;;;;;;;24.80;70.90;;;;;;5120973;28;19910;-79
2022/05/22 11:25:09;;;;;;;;;;;24.80;72.20;;;;;;5104494;28;19908;-79
2022/05/22 11:27:42;;;;;;;;;;;24.90;73.80;;;;;;5098198;28;19910;-79
2022/05/22 11:30:11;;;;;;;;;;;25.10;73.00;;;;;;5098111;28;19958;-79
2022/05/22 11:32:39;;;;;;;;;;;25.10;70.70;;;;;;5098717;28;19908;-79
2022/05/22 11:35:17;;;;;;;;;;;25.10;74.50;;;;;;5098598;28;19907;-80
2022/05/22 11:37:57;;;;;;;;;;;25.20;70.00;;;;;;5098474;28;19904;-79
2022/05/22 11:40:41;;;;;;;;;;;25.40;70.30;;;;;;5077839;28;19908;-79
2022/05/22 11:43:27;;;;;;;;;;;25.40;70.80;;;;;;5077288;28;20431;-79
2022/05/22 11:45:59;;;;;;;;;;;25.50;68.20;;;;;;5060420;28;19904;-79
2022/05/22 11:48:24;;;;;;;;;;;25.50;69.30;;;;;;5077542;28;19910;-80
2022/05/22 11:50:54;;;;;;;;;;;25.60;69.50;;;;;;5077550;28;19999;-80
2022/05/22 11:53:38;;;;;;;;;;;25.40;68.20;;;;;;5105472;28;19907;-79
2022/05/22 11:56:13;;;;;;;;;;;25.60;70.00;;;;;;5106882;28;19904;-80
2022/05/22 11:58:48;;;;;;;;;;;25.80;72.10;;;;;;5076895;28;19936;-80
2022/05/22 12:01:23;;;;;;;;;;;26.10;71.70;;;;;;5077898;28;19944;-80
2022/05/22 12:03:54;;;;;;;;;;;26.20;67.30;;;;;;5077053;28;20352;-80
2022/05/22 12:06:30;;;;;;;;;;;26.10;67.90;;;;;;5059458;28;19911;-79
2022/05/22 12:08:58;;;;;;;;;;;26.00;66.50;;;;;;5077430;28;19908;-79
2022/05/22 12:11:27;;;;;;;;;;;25.90;66.90;;;;;;5077550;28;19958;-79
2022/05/22 12:14:00;;;;;;;;;;;25.70;66.90;;;;;;5077186;28;19983;-79
2022/05/22 12:16:31;;;;;;;;;;;25.50;64.40;;;;;;5077789;28;20268;-79
2022/05/22 12:19:00;;;;;;;;;;;25.30;67.90;;;;;;5080256;28;19957;-81
2022/05/22 12:21:28;;;;;;;;;;;25.30;67.50;;;;;;5098729;28;19907;-80
2022/05/22 12:24:05;;;;;;;;;;;25.30;70.20;;;;;;5119945;28;19916;-80
2022/05/22 12:26:31;;;;;;;;;;;25.40;68.80;;;;;;5102792;28;19972;-80
2022/05/22 12:29:06;;;;;;;;;;;25.40;70.00;;;;;;5061455;28;20379;-79
2022/05/22 12:31:37;;;;;;;;;;;25.30;65.30;;;;;;5079769;28;19912;-80
2022/05/22 12:34:06;;;;;;;;;;;25.00;67.80;;;;;;5079542;28;19904;-80
2022/05/22 12:36:32;;;;;;;;;;;24.80;67.70;;;;;;5092939;28;20378;-80
2022/05/22 12:39:00;;;;;;;;;;;24.60;66.80;;;;;;5098944;28;19915;-80
2022/05/22 12:41:38;;;;;;;;;;;24.30;67.30;;;;;;5099129;28;19903;-80
2022/05/22 12:44:04;;;;;;;;;;;24.20;69.80;;;;;;5117856;28;19999;-80
2022/05/22 12:46:30;;;;;;;;;;;24.20;70.20;;;;;;5100219;28;19925;-80
2022/05/22 12:49:04;;;;;;;;;;;24.20;69.40;;;;;;5100446;28;19903;-80
2022/05/22 12:51:32;;;;;;;;;;;24.20;70.10;;;;;;5077584;28;20349;-80
2022/05/22 12:54:06;;;;;;;;;;;24.50;68.60;;;;;;5077913;28;19904;-79
2022/05/22 12:56:32;;;;;;;;;;;24.70;68.40;;;;;;5087639;28;20338;-80
2022/05/22 12:59:24;;;;;;;;;;;25.00;65.80;;;;;;5097787;28;19955;-80
2022/05/22 13:01:51;;;;;;;;;;;25.00;65.70;;;;;;5093458;28;19935;-80
2022/05/22 13:04:38;;;;;;;;;;;25.20;68.60;;;;;;5102296;28;19922;-80
2022/05/22 13:07:10;;;;;;;;;;;25.20;64.70;;;;;;5117440;28;19915;-79
2022/05/22 13:09:51;;;;;;;;;;;25.20;65.00;;;;;;5117903;28;19903;-79
2022/05/22 13:12:16;;;;;;;;;;;25.20;65.20;;;;;;5117259;28;20002;-80
2022/05/22 13:14:48;;;;;;;;;;;25.10;66.00;;;;;;5117050;28;19950;-80
2022/05/22 13:17:15;;;;;;;;;;;25.20;64.90;;;;;;5117331;28;19904;-79
2022/05/22 13:19:54;;;;;;;;;;;25.10;64.30;;;;;;5099917;28;20049;-80
2022/05/22 13:22:28;;;;;;;;;;;25.00;65.60;;;;;;5097369;28;19915;-79
2022/05/22 13:24:53;;;;;;;;;;;25.00;66.40;;;;;;5097295;28;19904;-80
2022/05/22 13:27:24;;;;;;;;;;;25.10;64.10;;;;;;5097518;28;19953;-80
2022/05/22 13:30:09;;;;;;;;;;;25.20;66.90;;;;;;5079115;28;19904;-80
2022/05/22 13:32:48;;;;;;;;;;;25.40;64.60;;;;;;5082535;28;19911;-81
2022/05/22 13:35:26;;;;;;;;;;;25.50;63.90;;;;;;5119748;28;19903;-81
2022/05/22 13:37:53;;;;;;;;;;;25.60;63.50;;;;;;5119055;28;20302;-80
2022/05/22 13:40:25;;;;;;;;;;;25.70;64.80;;;;;;5118020;28;19903;-80
2022/05/22 13:43:09;;;;;;;;;;;25.80;64.40;;;;;;5098723;28;19920;-80
2022/05/22 13:45:35;;;;;;;;;;;25.70;63.40;;;;;;5117328;28;19942;-80
2022/05/22 13:48:10;;;;;;;;;;;25.50;63.10;;;;;;5103022;28;19931;-80
2022/05/22 13:53:26;;;;;;;;;;;25.20;62.50;;;;;;5098066;28;20458;-80
2022/05/22 13:55:53;;;;;;;;;;;25.10;63.60;;;;;;5096804;28;19904;-81
2022/05/22 13:58:29;;;;;;;;;;;25.10;63.70;;;;;;5095568;28;19904;-79
2022/05/22 14:00:56;;;;;;;;;;;25.00;63.90;;;;;;5096352;28;19904;-80
2022/05/22 14:03:22;;;;;;;;;;;25.10;64.50;;;;;;5116100;28;19912;-80
2022/05/22 14:05:50;;;;;;;;;;;24.90;63.30;;;;;;5118016;28;20236;-80
2022/05/22 14:08:18;;;;;;;;;;;24.80;64.90;;;;;;5116866;28;19904;-80
2022/05/22 14:10:44;;;;;;;;;;;24.80;65.70;;;;;;5117348;28;19904;-81
2022/05/22 14:13:10;;;;;;;;;;;24.70;64.80;;;;;;5117942;28;19990;-80
2022/05/22 14:15:35;;;;;;;;;;;24.50;63.40;;;;;;5111971;28;19908;-81
2022/05/22 14:18:10;;;;;;;;;;;24.50;65.20;;;;;;5096470;28;20016;-81
2022/05/22 14:20:40;;;;;;;;;;;24.40;64.00;;;;;;5080270;28;19908;-81
2022/05/22 14:23:15;;;;;;;;;;;24.60;65.00;;;;;;5096528;28;20001;-80
2022/05/22 14:25:41;;;;;;;;;;;24.50;64.80;;;;;;5100206;28;19911;-80
2022/05/22 14:28:07;;;;;;;;;;;24.50;63.90;;;;;;5102640;28;19908;-81
2022/05/22 14:30:34;;;;;;;;;;;24.30;64.90;;;;;;5114461;28;19961;-81
2022/05/22 14:33:05;;;;;;;;;;;24.20;67.10;;;;;;5123461;28;19927;-81
2022/05/22 14:35:40;;;;;;;;;;;24.20;64.60;;;;;;5124624;28;19907;-80
2022/05/22 14:38:11;;;;;;;;;;;24.20;66.10;;;;;;5123352;28;19990;-80
2022/05/22 14:40:42;;;;;;;;;;;24.10;64.80;;;;;;5123433;28;19914;-80
2022/05/22 14:43:08;;;;;;;;;;;24.00;66.50;;;;;;5122393;28;19995;-80
2022/05/22 14:45:40;;;;;;;;;;;24.00;65.40;;;;;;5121647;28;19945;-81
2022/05/22 14:48:08;;;;;;;;;;;24.00;65.90;;;;;;5122564;28;19931;-79